createdAt,value
2023-02-06T00:01:12.619Z,23.00
2023-02-06T00:03:39.393Z,22.63
2023-02-06T00:06:06.738Z,23.07
2023-02-06T00:08:34.246Z,22.47
2023-02-06T00:11:03.488Z,21.93
2023-02-06T00:13:30.223Z,21.33
2023-02-06T00:15:57.262Z,21.60
2023-02-06T00:18:24.650Z,22.33
2023-02-06T00:20:51.327Z,21.20
2023-02-06T00:23:18.258Z,21.83
2023-02-06T00:25:45.184Z,21.20
2023-02-06T00:28:12.094Z,21.50
2023-02-06T00:30:39.112Z,21.47
2023-02-06T00:33:05.765Z,20.07
2023-02-06T00:35:33.230Z,21.20
2023-02-06T00:38:01.675Z,19.13
2023-02-06T00:40:28.870Z,22.07
2023-02-06T00:42:55.523Z,23.97
2023-02-06T00:45:22.137Z,18.80
2023-02-06T00:47:48.785Z,17.60
2023-02-06T00:50:15.583Z,17.80
2023-02-06T00:52:43.126Z,17.30
2023-02-06T00:55:09.947Z,18.07
2023-02-06T00:57:36.730Z,17.47
2023-02-06T01:00:04.871Z,16.43
2023-02-06T01:02:31.550Z,17.27
2023-02-06T01:04:58.228Z,16.20
2023-02-06T01:07:24.911Z,16.70
2023-02-06T01:09:52.196Z,15.73
2023-02-06T01:12:18.827Z,17.57
2023-02-06T01:14:45.517Z,16.63
2023-02-06T01:17:12.250Z,16.70
2023-02-06T01:19:39.595Z,18.37
2023-02-06T01:22:07.322Z,17.63
2023-02-06T01:24:34.038Z,16.13
2023-02-06T01:27:01.371Z,15.27
2023-02-06T01:29:28.232Z,14.83
2023-02-06T01:31:54.991Z,15.33
2023-02-06T01:34:21.984Z,15.43
2023-02-06T01:36:48.996Z,16.70
2023-02-06T01:39:15.663Z,15.17
2023-02-06T01:41:42.604Z,15.67
2023-02-06T01:44:14.785Z,14.77
2023-02-06T01:46:43.487Z,15.90
2023-02-06T01:49:15.198Z,16.87
2023-02-06T01:51:42.321Z,15.57
2023-02-06T01:54:09.917Z,15.93
2023-02-06T01:56:41.132Z,16.20
2023-02-06T01:59:07.957Z,16.63
2023-02-06T02:01:35.332Z,16.13
2023-02-06T02:04:06.070Z,16.73
2023-02-06T02:06:34.103Z,15.17
2023-02-06T02:09:03.001Z,16.17
2023-02-06T02:11:33.312Z,13.93
2023-02-06T02:14:01.679Z,14.10
2023-02-06T02:16:43.345Z,14.23
2023-02-06T02:19:51.955Z,18.70
2023-02-06T02:22:41.669Z,14.17
2023-02-06T02:25:56.202Z,18.10
2023-02-06T02:29:00.904Z,15.07
2023-02-06T02:31:56.474Z,13.50
2023-02-06T02:35:06.828Z,14.10
2023-02-06T02:37:49.324Z,12.80
2023-02-06T02:40:24.308Z,12.70
2023-02-06T02:42:58.954Z,13.00
2023-02-06T02:45:32.241Z,13.13
2023-02-06T02:48:06.083Z,13.07
2023-02-06T02:50:35.290Z,13.00
2023-02-06T02:53:04.384Z,13.40
2023-02-06T02:55:31.412Z,13.47
2023-02-06T02:58:04.079Z,13.53
2023-02-06T03:00:34.758Z,12.93
2023-02-06T03:03:03.955Z,12.93
2023-02-06T03:05:36.038Z,13.40
2023-02-06T03:08:12.996Z,12.93
2023-02-06T03:10:47.909Z,13.10
2023-02-06T03:13:19.216Z,14.17
2023-02-06T03:15:54.508Z,13.67
2023-02-06T03:18:26.341Z,13.37
2023-02-06T03:20:54.205Z,15.00
2023-02-06T03:23:28.341Z,12.73
2023-02-06T03:25:57.292Z,14.37
2023-02-06T03:28:27.615Z,13.70
2023-02-06T03:30:58.065Z,13.50
2023-02-06T03:33:30.229Z,13.53
2023-02-06T03:35:58.255Z,12.27
2023-02-06T03:38:25.993Z,12.80
2023-02-06T03:40:54.036Z,12.73
2023-02-06T03:43:24.564Z,13.00
2023-02-06T03:45:55.748Z,12.83
2023-02-06T03:48:28.910Z,12.27
2023-02-06T03:50:58.773Z,10.87
2023-02-06T03:53:26.856Z,11.80
2023-02-06T03:55:58.753Z,11.67
2023-02-06T03:58:25.757Z,11.17
2023-02-06T04:00:53.084Z,10.70
2023-02-06T04:03:20.798Z,11.53
2023-02-06T04:05:47.756Z,10.80
2023-02-06T04:08:14.363Z,11.43
2023-02-06T04:10:41.651Z,10.70
2023-02-06T04:13:08.272Z,10.50
2023-02-06T04:15:35.270Z,11.73
2023-02-06T04:18:02.834Z,11.93
2023-02-06T04:20:30.197Z,11.20
2023-02-06T04:22:57.440Z,11.53
2023-02-06T04:25:24.357Z,12.73
2023-02-06T04:27:52.163Z,12.87
2023-02-06T04:30:19.152Z,10.93
2023-02-06T04:32:45.837Z,11.50
2023-02-06T04:35:12.595Z,11.93
2023-02-06T04:37:39.589Z,11.33
2023-02-06T04:40:06.909Z,12.07
2023-02-06T04:42:33.587Z,11.57
2023-02-06T04:45:00.881Z,10.47
2023-02-06T04:47:27.849Z,10.90
2023-02-06T04:49:54.783Z,11.57
2023-02-06T04:52:21.770Z,10.47
2023-02-06T04:54:48.411Z,9.70
2023-02-06T04:57:15.387Z,9.40
2023-02-06T04:59:42.368Z,12.17
2023-02-06T05:02:09.747Z,9.17
2023-02-06T05:04:38.216Z,8.30
2023-02-06T05:07:05.643Z,8.23
2023-02-06T05:09:32.724Z,8.70
2023-02-06T05:11:59.764Z,8.20
2023-02-06T05:14:26.567Z,8.37
2023-02-06T05:16:53.254Z,8.23
2023-02-06T05:19:20.659Z,8.83
2023-02-06T05:21:47.691Z,8.60
2023-02-06T05:24:14.751Z,8.47
2023-02-06T05:26:41.434Z,8.53
2023-02-06T05:29:08.134Z,8.93
2023-02-06T05:31:35.181Z,8.97
2023-02-06T05:34:02.216Z,9.40
2023-02-06T05:36:29.552Z,9.40
2023-02-06T05:38:56.676Z,9.33
2023-02-06T05:41:23.599Z,10.20
2023-02-06T05:43:50.558Z,9.53
2023-02-06T05:46:17.218Z,8.97
2023-02-06T05:48:43.926Z,9.57
2023-02-06T05:51:10.682Z,10.57
2023-02-06T05:53:38.017Z,9.43
2023-02-06T05:56:05.507Z,9.20
2023-02-06T05:58:32.619Z,9.50
2023-02-06T06:00:59.721Z,10.03
2023-02-06T06:03:26.461Z,10.70
2023-02-06T06:05:53.941Z,10.63
2023-02-06T06:08:21.562Z,10.43
2023-02-06T06:10:50.613Z,10.43
2023-02-06T06:13:17.713Z,10.90
2023-02-06T06:15:44.822Z,11.60
2023-02-06T06:18:11.594Z,11.70
2023-02-06T06:20:38.560Z,12.87
2023-02-06T06:23:05.625Z,11.70
2023-02-06T06:25:32.671Z,11.93
2023-02-06T06:28:00.022Z,13.43
2023-02-06T06:30:27.013Z,11.17
2023-02-06T06:32:54.060Z,11.33
2023-02-06T06:35:21.068Z,12.33
2023-02-06T06:37:48.049Z,12.47
2023-02-06T06:40:15.107Z,11.43
2023-02-06T06:42:42.351Z,12.33
2023-02-06T06:45:10.066Z,14.03
2023-02-06T06:47:36.989Z,17.67
2023-02-06T06:50:04.356Z,12.77
2023-02-06T06:52:31.265Z,12.87
2023-02-06T06:54:58.280Z,13.03
2023-02-06T06:57:25.296Z,12.93
2023-02-06T06:59:52.382Z,13.23
2023-02-06T07:02:19.804Z,15.27
2023-02-06T07:04:46.570Z,15.57
2023-02-06T07:07:13.229Z,14.17
2023-02-06T07:09:40.208Z,18.57
2023-02-06T07:12:07.273Z,14.83
2023-02-06T07:14:34.163Z,14.00
2023-02-06T07:17:01.012Z,15.47
2023-02-06T07:19:28.319Z,17.53
2023-02-06T07:21:55.238Z,15.23
2023-02-06T07:24:22.154Z,14.57
2023-02-06T07:26:49.176Z,14.03
2023-02-06T07:29:16.109Z,14.73
2023-02-06T07:31:42.820Z,15.63
2023-02-06T07:34:09.540Z,14.77
2023-02-06T07:36:37.311Z,14.93
2023-02-06T07:39:04.480Z,14.87
2023-02-06T07:41:31.494Z,15.43
2023-02-06T07:43:58.506Z,14.73
2023-02-06T07:46:25.561Z,15.17
2023-02-06T07:48:52.695Z,15.30
2023-02-06T07:51:19.522Z,15.43
2023-02-06T07:53:48.071Z,16.40
2023-02-06T07:56:16.696Z,16.03
2023-02-06T07:58:43.765Z,15.93
2023-02-06T08:01:10.767Z,16.00
2023-02-06T08:03:37.732Z,18.10
2023-02-06T08:06:08.558Z,18.50
2023-02-06T08:08:35.224Z,18.17
2023-02-06T08:11:05.794Z,17.43
2023-02-06T08:13:33.099Z,18.77
2023-02-06T08:16:03.532Z,18.73
2023-02-06T08:18:30.436Z,17.90
2023-02-06T08:21:00.921Z,17.83
2023-02-06T08:23:27.828Z,18.17
2023-02-06T08:26:02.067Z,18.10
2023-02-06T08:28:29.511Z,18.70
2023-02-06T08:30:56.370Z,19.30
2023-02-06T08:33:23.379Z,16.83
2023-02-06T08:35:50.344Z,18.17
2023-02-06T08:38:17.353Z,19.40
2023-02-06T08:40:44.355Z,18.70
2023-02-06T08:43:10.992Z,18.47
2023-02-06T08:45:38.389Z,19.77
2023-02-06T08:48:05.305Z,18.87
2023-02-06T08:50:31.988Z,18.27
2023-02-06T08:52:59.582Z,19.13
2023-02-06T08:55:27.185Z,18.97
2023-02-06T08:57:54.578Z,19.23
2023-02-06T09:00:22.096Z,19.00
2023-02-06T09:02:51.144Z,19.77
2023-02-06T09:05:18.519Z,20.17
2023-02-06T09:07:45.263Z,20.03
2023-02-06T09:10:26.819Z,19.23
2023-02-06T09:12:54.387Z,20.33
2023-02-06T09:15:21.651Z,18.87
2023-02-06T09:17:48.929Z,19.40
2023-02-06T09:20:16.414Z,19.10
2023-02-06T09:22:43.923Z,18.57
2023-02-06T09:25:11.147Z,18.20
2023-02-06T09:27:38.235Z,19.17
2023-02-06T09:30:05.651Z,19.93
2023-02-06T09:32:32.314Z,20.67
2023-02-06T09:35:00.618Z,21.13
2023-02-06T09:37:27.421Z,22.73
2023-02-06T09:39:54.112Z,21.93
2023-02-06T09:42:29.936Z,22.37
2023-02-06T09:45:04.055Z,22.10
2023-02-06T09:47:33.959Z,23.03
2023-02-06T09:50:06.789Z,24.33
2023-02-06T09:52:59.512Z,23.93
2023-02-06T09:55:32.988Z,24.43
2023-02-06T09:58:06.639Z,24.17
2023-02-06T10:00:41.196Z,24.20
2023-02-06T10:03:40.924Z,22.47
2023-02-06T10:06:15.935Z,24.20
2023-02-06T10:08:48.514Z,22.73
2023-02-06T10:11:29.502Z,24.63
2023-02-06T10:14:00.292Z,23.67
2023-02-06T10:16:39.665Z,23.40
2023-02-06T10:19:12.938Z,22.50
2023-02-06T10:21:43.693Z,22.90
2023-02-06T10:24:17.490Z,23.20
2023-02-06T10:26:47.227Z,23.90
2023-02-06T10:29:17.885Z,21.47
2023-02-06T10:31:58.809Z,22.47
2023-02-06T10:34:45.194Z,22.87
2023-02-06T10:37:24.267Z,22.30
2023-02-06T10:40:02.531Z,21.67
2023-02-06T10:42:42.664Z,23.97
2023-02-06T10:45:20.145Z,22.77
2023-02-06T10:47:53.897Z,21.40
2023-02-06T10:50:26.997Z,20.00
2023-02-06T10:52:58.040Z,21.00
2023-02-06T10:55:27.449Z,21.27
2023-02-06T10:58:02.285Z,23.67
2023-02-06T11:00:29.977Z,22.47
2023-02-06T11:03:07.408Z,23.87
2023-02-06T11:05:36.291Z,23.43
2023-02-06T11:08:10.718Z,22.13
2023-02-06T11:10:38.508Z,26.30
2023-02-06T11:13:10.249Z,25.60
2023-02-06T11:15:39.968Z,28.17
2023-02-06T11:18:11.999Z,24.50
2023-02-06T11:20:41.257Z,27.30
2023-02-06T11:23:17.870Z,27.20
2023-02-06T11:25:45.717Z,26.40
2023-02-06T11:28:15.704Z,27.33
2023-02-06T11:30:55.092Z,26.03
2023-02-06T11:33:25.990Z,25.77
2023-02-06T11:35:55.178Z,24.47
2023-02-06T11:38:24.462Z,26.50
2023-02-06T11:43:50.117Z,25.63
2023-02-06T11:46:19.167Z,24.50
2023-02-06T11:48:47.387Z,25.13
2023-02-06T11:51:16.122Z,25.07
2023-02-06T11:53:56.394Z,24.57
2023-02-06T11:56:23.820Z,21.57
2023-02-06T11:59:02.188Z,22.07
2023-02-06T12:01:38.477Z,20.47
2023-02-06T12:04:08.691Z,22.23
2023-02-06T12:06:39.126Z,20.30
2023-02-06T12:09:12.343Z,21.30
2023-02-06T12:11:46.888Z,20.90
2023-02-06T12:14:19.441Z,17.77
2023-02-06T12:16:46.659Z,19.07
2023-02-06T12:19:16.882Z,17.63
2023-02-06T12:21:47.114Z,17.83
2023-02-06T12:24:27.984Z,14.07
2023-02-06T12:26:57.828Z,16.37
2023-02-06T12:29:30.053Z,15.63
2023-02-06T12:32:04.393Z,16.00
2023-02-06T12:34:43.633Z,16.53
2023-02-06T12:37:15.584Z,17.50
2023-02-06T12:39:44.752Z,15.80
2023-02-06T12:42:33.464Z,17.50
2023-02-06T12:45:05.058Z,17.23
2023-02-06T12:47:37.763Z,15.33
2023-02-06T12:50:13.812Z,15.67
2023-02-06T12:52:43.742Z,17.57
2023-02-06T12:55:19.375Z,18.10
2023-02-06T12:57:46.273Z,15.30
2023-02-06T13:00:39.931Z,15.20
2023-02-06T13:03:29.508Z,15.30
2023-02-06T13:06:02.539Z,14.70
2023-02-06T13:08:40.050Z,16.07
2023-02-06T13:11:12.133Z,18.17
2023-02-06T13:13:41.199Z,16.47
2023-02-06T13:16:09.174Z,16.97
2023-02-06T13:18:52.171Z,15.40
2023-02-06T13:21:28.344Z,15.30
2023-02-06T13:24:18.044Z,15.73
2023-02-06T13:27:09.574Z,15.60
2023-02-06T13:29:37.845Z,15.07
2023-02-06T13:32:42.931Z,16.23
2023-02-06T13:35:21.321Z,14.17
2023-02-06T13:37:49.418Z,15.03
2023-02-06T13:40:28.235Z,13.27
2023-02-06T13:42:59.654Z,14.77
2023-02-06T13:45:30.604Z,14.77
2023-02-06T13:48:30.780Z,14.60
2023-02-06T13:51:19.536Z,12.30
2023-02-06T13:54:11.678Z,13.63
2023-02-06T13:56:52.478Z,12.43
2023-02-06T13:59:24.309Z,13.87
2023-02-06T14:01:51.853Z,12.97
2023-02-06T14:04:23.308Z,13.57
2023-02-06T14:07:21.336Z,13.83
2023-02-06T14:10:10.718Z,14.17
2023-02-06T14:12:52.513Z,14.30
2023-02-06T14:15:32.614Z,14.50
2023-02-06T14:18:26.297Z,13.17
2023-02-06T14:20:59.927Z,14.13
2023-02-06T14:23:39.284Z,14.43
2023-02-06T14:26:20.627Z,13.17
2023-02-06T14:29:00.437Z,13.00
2023-02-06T14:31:40.410Z,13.03
2023-02-06T14:34:24.645Z,13.80
2023-02-06T14:37:12.554Z,12.80
2023-02-06T14:39:45.678Z,13.53
2023-02-06T14:42:16.946Z,13.87
2023-02-06T14:44:46.297Z,15.50
2023-02-06T14:47:20.322Z,15.37
2023-02-06T14:49:48.584Z,15.40
2023-02-06T14:52:18.839Z,16.63
2023-02-06T14:54:45.599Z,17.50
2023-02-06T14:57:20.191Z,21.37
2023-02-06T14:59:52.123Z,15.83
2023-02-06T15:02:25.265Z,16.93
2023-02-06T15:04:51.969Z,14.67
2023-02-06T15:07:26.954Z,15.90
2023-02-06T15:10:13.643Z,16.70
2023-02-06T15:12:40.583Z,16.50
2023-02-06T15:15:19.665Z,16.90
2023-02-06T15:17:57.140Z,15.83
2023-02-06T15:20:30.616Z,14.43
2023-02-06T15:23:16.982Z,16.57
2023-02-06T15:26:02.632Z,16.10
2023-02-06T15:28:31.131Z,14.70
2023-02-06T15:31:04.926Z,15.77
2023-02-06T15:33:34.453Z,15.50
2023-02-06T15:36:04.981Z,17.07
2023-02-06T15:38:35.242Z,15.70
2023-02-06T15:41:06.520Z,15.83
2023-02-06T15:43:34.017Z,14.93
2023-02-06T15:46:05.415Z,15.80
2023-02-06T15:48:36.618Z,16.63
2023-02-06T15:51:19.311Z,16.33
2023-02-06T15:53:50.367Z,17.63
2023-02-06T15:56:23.955Z,16.97
2023-02-06T15:58:58.634Z,15.37
2023-02-06T16:01:31.474Z,19.27
2023-02-06T16:04:03.818Z,20.80
2023-02-06T16:06:34.232Z,16.73
2023-02-06T16:09:05.725Z,16.70
2023-02-06T16:11:51.030Z,16.30
2023-02-06T16:14:27.437Z,14.47
2023-02-06T16:16:59.374Z,17.17
2023-02-06T16:19:36.871Z,14.87
2023-02-06T16:22:05.524Z,15.27
2023-02-06T16:24:32.212Z,16.23
2023-02-06T16:27:14.902Z,16.00
2023-02-06T16:29:47.463Z,14.20
2023-02-06T16:32:16.989Z,15.57
2023-02-06T16:34:45.431Z,15.47
2023-02-06T16:37:13.889Z,16.93
2023-02-06T16:39:42.206Z,15.33
2023-02-06T16:42:13.185Z,15.53
2023-02-06T16:44:45.453Z,15.70
2023-02-06T16:47:15.230Z,16.53
2023-02-06T16:49:42.714Z,17.83
2023-02-06T16:52:17.770Z,18.10
2023-02-06T16:54:45.294Z,18.80
2023-02-06T16:57:19.212Z,17.37
2023-02-06T16:59:45.906Z,16.53
2023-02-06T17:02:13.875Z,18.70
2023-02-06T17:04:41.159Z,17.90
2023-02-06T17:07:16.226Z,17.93
2023-02-06T17:09:43.901Z,19.43
2023-02-06T17:12:15.301Z,18.47
2023-02-06T17:14:42.461Z,18.77
2023-02-06T17:17:11.143Z,18.57
2023-02-06T17:19:38.489Z,19.30
2023-02-06T17:22:05.668Z,18.33
2023-02-06T17:24:33.073Z,18.67
2023-02-06T17:27:00.786Z,21.23
2023-02-06T17:29:27.754Z,19.27
2023-02-06T17:31:54.770Z,19.73
2023-02-06T17:34:22.644Z,19.53
2023-02-06T17:36:49.278Z,19.93
2023-02-06T17:39:16.551Z,20.27
2023-02-06T17:41:43.914Z,19.37
2023-02-06T17:44:11.113Z,20.33
2023-02-06T17:46:37.924Z,19.20
2023-02-06T17:49:04.812Z,20.27
2023-02-06T17:51:31.784Z,18.57
2023-02-06T17:53:58.755Z,21.10
2023-02-06T17:56:25.762Z,19.53
2023-02-06T17:58:53.272Z,20.13
2023-02-06T18:01:22.086Z,21.87
2023-02-06T18:03:49.630Z,21.37
2023-02-06T18:06:17.311Z,19.73
2023-02-06T18:08:44.950Z,22.63
2023-02-06T18:11:13.839Z,21.10
2023-02-06T18:13:41.852Z,22.40
2023-02-06T18:16:13.485Z,20.23
2023-02-06T18:18:40.192Z,22.23
2023-02-06T18:21:07.082Z,22.90
2023-02-06T18:23:34.072Z,21.90
2023-02-06T18:26:02.036Z,25.57
2023-02-06T18:28:28.709Z,23.93
2023-02-06T18:30:55.598Z,22.90
2023-02-06T18:33:23.272Z,24.63
2023-02-06T18:35:50.545Z,29.83
2023-02-06T18:38:17.425Z,25.97
2023-02-06T18:40:46.008Z,25.53
2023-02-06T18:43:12.795Z,23.80
2023-02-06T18:45:40.463Z,23.60
2023-02-06T18:48:10.020Z,24.07
2023-02-06T18:50:40.677Z,24.10
2023-02-06T18:53:08.058Z,24.57
2023-02-06T18:55:34.892Z,24.60
2023-02-06T18:58:02.146Z,25.47
2023-02-06T19:00:29.719Z,26.43
2023-02-06T19:02:58.055Z,26.47
2023-02-06T19:05:24.783Z,26.73
2023-02-06T19:07:52.916Z,27.17
2023-02-06T19:10:20.919Z,26.93
2023-02-06T19:12:47.930Z,28.20
2023-02-06T19:15:15.170Z,28.57
2023-02-06T19:17:42.279Z,28.30
2023-02-06T19:20:10.696Z,28.07
2023-02-06T19:22:38.270Z,27.57
2023-02-06T19:25:10.554Z,25.97
2023-02-06T19:27:38.137Z,27.53
2023-02-06T19:30:07.077Z,26.40
2023-02-06T19:32:34.292Z,25.53
2023-02-06T19:35:01.025Z,27.27
2023-02-06T19:37:27.683Z,28.67
2023-02-06T19:39:54.370Z,28.70
2023-02-06T19:42:21.771Z,28.27
2023-02-06T19:44:53.276Z,26.83
2023-02-06T19:47:20.088Z,27.47
2023-02-06T19:49:50.051Z,27.00
2023-02-06T19:52:16.891Z,26.80
2023-02-06T19:54:43.639Z,26.17
2023-02-06T19:57:10.348Z,27.97
2023-02-06T19:59:37.770Z,28.40
2023-02-06T20:02:04.563Z,27.87
2023-02-06T20:04:34.741Z,27.80
2023-02-06T20:07:02.489Z,28.97
2023-02-06T20:09:30.664Z,27.63
2023-02-06T20:11:57.799Z,28.13
2023-02-06T20:14:26.071Z,26.93
2023-02-06T20:16:53.552Z,27.07
2023-02-06T20:19:23.980Z,29.60
2023-02-06T20:21:53.417Z,29.67
2023-02-06T20:24:22.403Z,29.63
2023-02-06T20:26:50.937Z,27.73
2023-02-06T20:29:21.640Z,26.87
2023-02-06T20:31:49.036Z,28.47
2023-02-06T20:34:20.446Z,28.37
2023-02-06T20:36:48.179Z,30.07
2023-02-06T20:39:18.942Z,32.10
2023-02-06T20:41:46.331Z,28.87
2023-02-06T20:44:20.995Z,28.97
2023-02-06T20:46:48.433Z,28.63
2023-02-06T20:49:21.482Z,31.37
2023-02-06T20:51:49.703Z,30.33
2023-02-06T20:54:17.841Z,29.70
2023-02-06T20:56:44.716Z,31.83
2023-02-06T20:59:14.265Z,29.93
2023-02-06T21:01:43.193Z,30.13
2023-02-06T21:04:14.326Z,32.83
2023-02-06T21:06:46.792Z,43.47
2023-02-06T21:09:14.042Z,32.67
2023-02-06T21:11:43.631Z,33.27
2023-02-06T21:14:13.953Z,33.53
2023-02-06T21:16:43.077Z,27.87
2023-02-06T21:19:14.870Z,31.00
2023-02-06T21:21:45.608Z,30.67
2023-02-06T21:24:16.609Z,32.90
2023-02-06T21:26:44.250Z,29.63
2023-02-06T21:29:12.491Z,31.03
2023-02-06T21:31:39.547Z,31.37
2023-02-06T21:34:08.465Z,29.87
2023-02-06T21:36:36.958Z,30.17
2023-02-06T21:39:04.609Z,38.53
2023-02-06T21:41:32.138Z,48.23
2023-02-06T21:43:58.945Z,38.43
2023-02-06T21:46:25.999Z,37.23
2023-02-06T21:48:53.424Z,34.37
2023-02-06T21:51:20.985Z,33.40
2023-02-06T21:53:47.813Z,31.20
2023-02-06T21:56:16.805Z,27.77
2023-02-06T21:58:43.759Z,31.23
2023-02-06T22:01:14.260Z,30.07
2023-02-06T22:03:41.027Z,33.40
2023-02-06T22:06:08.680Z,47.33
2023-02-06T22:08:35.811Z,36.90
2023-02-06T22:11:02.825Z,35.20
2023-02-06T22:13:30.220Z,31.67
2023-02-06T22:15:57.009Z,32.10
2023-02-06T22:18:23.674Z,33.07
2023-02-06T22:20:51.431Z,33.33
2023-02-06T22:23:18.155Z,34.53
2023-02-06T22:25:47.393Z,35.20
2023-02-06T22:28:14.095Z,38.60
2023-02-06T22:30:41.773Z,35.93
2023-02-06T22:33:08.469Z,37.53
2023-02-06T22:35:38.922Z,44.57
2023-02-06T22:38:05.829Z,48.13
2023-02-06T22:40:32.804Z,38.97
2023-02-06T22:42:59.506Z,59.47
2023-02-06T22:45:26.262Z,62.33
2023-02-06T22:47:53.638Z,60.13
2023-02-06T22:50:20.374Z,47.40
2023-02-06T22:53:05.360Z,42.23
2023-02-06T22:55:46.614Z,34.87
2023-02-06T22:58:13.352Z,32.70
2023-02-06T23:00:40.015Z,32.87
2023-02-06T23:03:07.367Z,42.00
2023-02-06T23:05:35.262Z,46.10
2023-02-06T23:08:02.107Z,41.93
2023-02-06T23:10:28.789Z,36.07
2023-02-06T23:12:55.763Z,35.67
2023-02-06T23:15:22.923Z,35.67
2023-02-06T23:17:49.905Z,34.57
2023-02-06T23:20:17.577Z,34.57
2023-02-06T23:22:44.496Z,36.60
2023-02-06T23:25:11.219Z,34.97
2023-02-06T23:27:37.904Z,34.67
2023-02-06T23:30:05.113Z,32.83
2023-02-06T23:32:31.743Z,33.20
2023-02-06T23:34:59.198Z,33.17
2023-02-06T23:37:26.579Z,33.37
2023-02-06T23:39:53.430Z,32.30
2023-02-06T23:42:20.120Z,35.77
2023-02-06T23:44:46.759Z,33.43
2023-02-06T23:47:13.436Z,34.93
2023-02-06T23:49:40.225Z,33.87
2023-02-06T23:52:06.906Z,34.97
2023-02-06T23:54:34.248Z,34.13
2023-02-06T23:57:00.941Z,34.97
2023-02-06T23:59:27.892Z,36.00
